Edgeley, North Dakota
Current Conditions -  °F | °C
As of 1:56 AM on Saturday 29 Nov 2014 (Local Time) from KJMS Reporting Station
Overcast Overcast  
Wind Chill:   Ceiling: 12000
Heat Index: 17°   Visibility: 10mi
Dew Point: 14°   Wind: 13mph
Humidity: 88%   Direction: 170°S
Pressure: 29.4"   Gusts: NA
Location:  46.36°N, 98.72°W
Report Text: KJMS 290756Z AUTO 17011KT 10SM OVC120 M08/M10 A2940 RMK AO2 SLP985 T10831100
Loading
Personal Weather Stations






























Interactive Weather Map New forecast layout! Learn more

10-Day Weather Forecast

Advertisements
Track Severe Weather on mobile